createdAt,value
2022-07-29T00:00:10.841Z,100270.81
2022-07-29T00:03:14.600Z,100273.25
2022-07-29T00:06:17.091Z,100272.53
2022-07-29T00:09:19.779Z,100271.06
2022-07-29T00:12:26.714Z,100268.25
2022-07-29T00:15:29.697Z,100272.31
2022-07-29T00:18:32.823Z,100269.91
2022-07-29T00:21:35.547Z,100271.94
2022-07-29T00:24:38.138Z,100269.12
2022-07-29T00:27:41.165Z,100267.53
2022-07-29T00:30:44.360Z,100274.41
2022-07-29T00:33:46.824Z,100259.34
2022-07-29T00:36:49.007Z,100279.28
2022-07-29T00:39:51.579Z,100275.25
2022-07-29T00:42:54.052Z,100274.53
2022-07-29T00:45:56.642Z,100278.94
2022-07-29T00:48:59.000Z,100279.28
2022-07-29T00:52:12.043Z,100262.53
2022-07-29T00:55:16.874Z,100261.03
2022-07-29T00:58:19.432Z,100262.53
2022-07-29T01:01:21.761Z,100270.06
2022-07-29T01:04:24.565Z,100272.09
2022-07-29T01:07:27.813Z,100253.00
2022-07-29T01:10:31.257Z,100264.84
2022-07-29T01:13:34.339Z,100267.31
2022-07-29T01:16:55.726Z,100263.75
2022-07-29T01:20:06.035Z,100269.03
2022-07-29T01:23:17.557Z,100270.63
2022-07-29T01:26:41.863Z,100256.66
2022-07-29T01:29:55.056Z,100244.37
2022-07-29T01:33:03.069Z,100243.63
2022-07-29T01:36:11.992Z,100242.47
2022-07-29T01:39:22.818Z,100254.00
2022-07-29T01:42:35.092Z,100262.84
2022-07-29T01:45:46.338Z,100258.88
2022-07-29T01:48:53.914Z,100246.12
2022-07-29T01:52:12.250Z,100254.00
2022-07-29T01:55:16.563Z,100253.25
2022-07-29T01:58:20.247Z,100250.06
2022-07-29T02:01:23.930Z,100258.88
2022-07-29T02:04:29.799Z,100256.06
2022-07-29T02:07:33.944Z,100254.09
2022-07-29T02:10:39.315Z,100254.97
2022-07-29T02:13:43.099Z,100240.72
2022-07-29T02:16:50.243Z,100242.34
2022-07-29T02:19:56.908Z,100239.16
2022-07-29T02:23:01.768Z,100256.66
2022-07-29T02:26:04.972Z,100251.88
2022-07-29T02:29:09.414Z,100252.75
2022-07-29T02:32:15.083Z,100227.16
2022-07-29T02:35:19.414Z,100254.75
2022-07-29T02:38:41.830Z,100250.41
2022-07-29T02:41:55.625Z,100247.72
2022-07-29T02:44:57.972Z,100249.00
2022-07-29T02:48:04.302Z,100245.03
2022-07-29T02:51:12.753Z,100246.63
2022-07-29T02:54:42.816Z,100241.09
2022-07-29T02:57:54.996Z,100241.16
2022-07-29T03:01:02.131Z,100248.44
2022-07-29T03:04:06.116Z,100247.25
2022-07-29T03:07:11.393Z,100242.09
2022-07-29T03:10:14.409Z,100230.19
2022-07-29T03:13:17.913Z,100225.38
2022-07-29T03:16:21.137Z,100248.56
2022-07-29T03:19:24.149Z,100251.38
2022-07-29T03:22:26.501Z,100250.16
2022-07-29T03:25:29.180Z,100253.38
2022-07-29T03:28:31.859Z,100234.22
2022-07-29T03:31:35.145Z,100253.38
2022-07-29T03:34:38.799Z,100257.47
2022-07-29T03:37:41.425Z,100251.50
2022-07-29T03:40:53.978Z,100251.09
2022-07-29T03:43:58.323Z,100248.41
2022-07-29T03:47:03.045Z,100243.22
2022-07-29T03:50:12.938Z,100253.00
2022-07-29T03:53:15.394Z,100256.25
2022-07-29T03:56:22.517Z,100252.34
2022-07-29T03:59:24.995Z,100255.16
2022-07-29T04:02:30.676Z,100259.53
2022-07-29T04:05:33.705Z,100262.84
2022-07-29T04:08:36.794Z,100247.72
2022-07-29T04:11:59.183Z,100269.28
2022-07-29T04:15:05.132Z,100248.97
2022-07-29T04:18:07.663Z,100272.53
2022-07-29T04:21:09.892Z,100270.13
2022-07-29T04:24:12.754Z,100268.56
2022-07-29T04:27:15.213Z,100265.34
2022-07-29T04:30:17.796Z,100260.22
2022-07-29T04:33:20.087Z,100255.88
2022-07-29T04:36:28.857Z,100256.38
2022-07-29T04:39:32.125Z,100272.69
2022-07-29T04:42:34.661Z,100241.13
2022-07-29T04:45:47.357Z,100260.22
2022-07-29T04:48:49.961Z,100251.88
2022-07-29T04:51:52.561Z,100267.41
2022-07-29T04:54:55.138Z,100273.38
2022-07-29T04:57:57.449Z,100238.97
2022-07-29T05:01:01.367Z,100251.63
2022-07-29T05:04:03.772Z,100260.38
2022-07-29T05:07:06.369Z,100276.34
2022-07-29T05:10:09.576Z,100253.19
2022-07-29T05:13:11.999Z,100278.22
2022-07-29T05:16:15.175Z,100280.19
2022-07-29T05:19:18.562Z,100276.84
2022-07-29T05:22:21.277Z,100272.34
2022-07-29T05:25:40.811Z,100271.78
2022-07-29T05:28:46.793Z,100281.81
2022-07-29T05:31:49.307Z,100281.25
2022-07-29T05:34:51.969Z,100278.63
2022-07-29T05:37:54.549Z,100251.41
2022-07-29T05:41:00.620Z,100274.41
2022-07-29T05:44:03.546Z,100277.53
2022-07-29T05:47:07.424Z,100275.75
2022-07-29T05:50:10.135Z,100286.06
2022-07-29T05:53:19.463Z,100279.44
2022-07-29T05:56:22.922Z,100272.59
2022-07-29T05:59:30.148Z,100285.66
2022-07-29T06:02:33.204Z,100269.97
2022-07-29T06:05:35.944Z,100284.53
2022-07-29T06:08:38.841Z,100270.06
2022-07-29T06:11:41.545Z,100293.09
2022-07-29T06:14:43.948Z,100285.72
2022-07-29T06:17:59.257Z,100294.75
2022-07-29T06:21:02.549Z,100282.25
2022-07-29T06:24:05.722Z,100295.63
2022-07-29T06:27:08.029Z,100288.66
2022-07-29T06:30:10.995Z,100294.59
2022-07-29T06:33:18.238Z,100297.16
2022-07-29T06:36:20.811Z,100299.03
2022-07-29T06:39:25.215Z,100292.31
2022-07-29T06:42:27.750Z,100303.97
2022-07-29T06:45:30.249Z,100303.09
2022-07-29T06:48:33.733Z,100304.16
2022-07-29T06:51:36.045Z,100304.66
2022-07-29T06:54:39.640Z,100311.59
2022-07-29T06:57:42.051Z,100318.84
2022-07-29T07:00:46.049Z,100308.84
2022-07-29T07:03:48.442Z,100301.13
2022-07-29T07:09:40.130Z,100311.22
2022-07-29T07:12:43.825Z,100311.22
2022-07-29T07:15:48.748Z,100314.84
2022-07-29T07:18:51.234Z,100290.03
2022-07-29T07:21:54.249Z,100287.81
2022-07-29T07:24:58.293Z,100278.56
2022-07-29T07:28:00.563Z,100293.47
2022-07-29T07:31:03.559Z,100295.31
2022-07-29T07:34:05.818Z,100282.38
2022-07-29T07:37:08.540Z,100276.00
2022-07-29T07:40:18.652Z,100289.16
2022-07-29T07:43:21.521Z,100295.72
2022-07-29T07:46:23.856Z,100293.75
2022-07-29T07:49:26.508Z,100294.25
2022-07-29T07:52:28.914Z,100289.44
2022-07-29T07:55:47.446Z,100280.91
2022-07-29T07:58:53.756Z,100298.75
2022-07-29T08:01:56.932Z,100291.00
2022-07-29T08:05:00.541Z,100294.50
2022-07-29T08:08:02.817Z,100293.81
2022-07-29T08:11:09.387Z,100290.50
2022-07-29T08:14:12.122Z,100279.62
2022-07-29T08:17:16.355Z,100278.94
2022-07-29T08:20:18.702Z,100273.38
2022-07-29T08:23:21.569Z,100283.69
2022-07-29T08:26:24.548Z,100279.97
2022-07-29T08:29:27.189Z,100291.06
2022-07-29T08:32:52.202Z,100283.81
2022-07-29T08:35:52.119Z,100293.44
2022-07-29T08:38:54.686Z,100291.63
2022-07-29T08:41:57.763Z,100290.97
2022-07-29T08:45:00.079Z,100292.28
2022-07-29T08:48:02.696Z,100289.03
2022-07-29T08:51:07.876Z,100286.50
2022-07-29T08:54:11.327Z,100274.25
2022-07-29T08:57:17.871Z,100268.09
2022-07-29T09:00:21.848Z,100276.12
2022-07-29T09:03:25.861Z,100272.44
2022-07-29T09:06:35.537Z,100271.59
2022-07-29T09:09:40.501Z,100280.09
2022-07-29T09:12:43.189Z,100269.56
2022-07-29T09:15:45.982Z,100268.41
2022-07-29T09:18:48.583Z,100272.50
2022-07-29T09:22:00.155Z,100266.12
2022-07-29T09:25:02.914Z,100253.91
2022-07-29T09:28:08.868Z,100264.63
2022-07-29T09:31:11.770Z,100258.88
2022-07-29T09:34:25.776Z,100261.19
2022-07-29T09:37:29.601Z,100258.19
2022-07-29T09:40:31.894Z,100241.34
2022-07-29T09:43:34.853Z,100240.81
2022-07-29T09:46:37.459Z,100240.59
2022-07-29T09:50:01.152Z,100228.75
2022-07-29T09:53:03.592Z,100238.00
2022-07-29T09:56:06.757Z,100222.88
2022-07-29T09:59:10.431Z,100223.53
2022-07-29T10:02:17.763Z,100235.59
2022-07-29T10:05:27.280Z,100206.41
2022-07-29T10:08:39.311Z,100228.97
2022-07-29T10:11:49.516Z,100217.19
2022-07-29T10:14:52.778Z,100207.09
2022-07-29T10:17:57.169Z,100202.87
2022-07-29T10:21:02.157Z,100221.50
2022-07-29T10:24:05.920Z,100214.56
2022-07-29T10:27:10.124Z,100203.50
2022-07-29T10:30:15.705Z,100200.66
2022-07-29T10:33:49.007Z,100212.63
2022-07-29T10:36:51.470Z,100204.66
2022-07-29T10:40:01.675Z,100206.50
2022-07-29T10:43:19.662Z,100199.06
2022-07-29T10:46:23.293Z,100182.91
2022-07-29T10:49:31.091Z,100179.09
2022-07-29T10:52:53.720Z,100199.41
2022-07-29T10:55:56.294Z,100192.44
2022-07-29T10:59:22.878Z,100168.53
2022-07-29T11:02:42.741Z,100195.84
2022-07-29T11:05:56.870Z,100187.72
2022-07-29T11:09:20.359Z,100179.44
2022-07-29T11:12:39.777Z,100169.69
2022-07-29T11:16:03.273Z,100186.09
2022-07-29T11:19:11.268Z,100185.09
2022-07-29T11:22:35.740Z,100178.50
2022-07-29T11:25:50.430Z,100175.75
2022-07-29T11:28:55.620Z,100165.41
2022-07-29T11:32:18.157Z,100169.16
2022-07-29T11:35:38.124Z,100136.69
2022-07-29T11:38:42.567Z,100150.28
2022-07-29T11:41:45.527Z,100137.00
2022-07-29T11:45:09.076Z,100151.97
2022-07-29T11:48:32.603Z,100140.81
2022-07-29T11:51:38.698Z,100118.19
2022-07-29T11:54:57.958Z,100118.53
2022-07-29T11:58:03.953Z,100137.12
2022-07-29T12:01:07.404Z,100125.72
2022-07-29T12:04:10.058Z,100122.44
2022-07-29T12:07:15.333Z,100134.16
2022-07-29T12:10:19.986Z,100130.03
2022-07-29T12:13:39.946Z,100114.34
2022-07-29T12:16:42.501Z,100109.81
2022-07-29T12:19:46.270Z,100100.88
2022-07-29T12:22:50.301Z,100124.06
2022-07-29T12:25:53.117Z,100109.53
2022-07-29T12:28:56.713Z,100087.19
2022-07-29T12:31:59.427Z,100086.44
2022-07-29T12:35:16.860Z,100097.09
2022-07-29T12:38:20.118Z,100079.94
2022-07-29T12:41:22.806Z,100091.78
2022-07-29T12:44:25.566Z,100085.28
2022-07-29T12:47:28.191Z,100079.00
2022-07-29T12:50:30.549Z,100077.13
2022-07-29T12:53:33.582Z,100068.47
2022-07-29T12:56:43.711Z,100049.75
2022-07-29T12:59:59.306Z,100064.37
2022-07-29T13:03:02.315Z,100046.22
2022-07-29T13:06:04.925Z,100066.06
2022-07-29T13:09:07.983Z,100047.75
2022-07-29T13:12:12.965Z,100052.34
2022-07-29T13:15:16.225Z,100041.94
2022-07-29T13:18:35.038Z,100034.84
2022-07-29T13:21:39.647Z,100046.94
2022-07-29T13:24:58.917Z,100037.66
2022-07-29T13:28:01.186Z,100028.44
2022-07-29T13:31:07.749Z,100024.91
2022-07-29T13:34:10.463Z,100031.75
2022-07-29T13:37:13.279Z,100007.06
2022-07-29T13:40:16.034Z,100010.97
2022-07-29T13:43:18.578Z,100016.72
2022-07-29T13:46:23.917Z,100013.59
2022-07-29T13:49:26.965Z,99992.16
2022-07-29T13:52:29.899Z,100011.50
2022-07-29T13:55:35.010Z,99992.16
2022-07-29T13:58:37.509Z,100006.25
2022-07-29T14:01:43.199Z,99977.31
2022-07-29T14:04:46.007Z,99984.06
2022-07-29T14:07:48.230Z,99982.22
2022-07-29T14:10:53.802Z,99983.78
2022-07-29T14:13:56.139Z,99971.28
2022-07-29T14:16:58.793Z,99989.03
2022-07-29T14:20:01.383Z,99980.91
2022-07-29T14:23:03.921Z,99972.66
2022-07-29T14:26:08.731Z,99966.94
2022-07-29T14:29:15.680Z,99972.94
2022-07-29T14:32:18.027Z,99950.69
2022-07-29T14:35:20.716Z,99967.78
2022-07-29T14:38:23.019Z,99975.09
2022-07-29T14:41:29.450Z,99954.59
2022-07-29T14:44:34.245Z,99960.88
2022-07-29T14:47:38.555Z,99955.16
2022-07-29T14:50:41.296Z,99950.22
2022-07-29T14:53:44.187Z,99953.03
2022-07-29T14:56:47.128Z,99931.31
2022-07-29T14:59:49.864Z,99947.72
2022-07-29T15:03:01.840Z,99936.59
2022-07-29T15:06:05.252Z,99932.44
2022-07-29T15:09:07.753Z,99913.84
2022-07-29T15:12:11.439Z,99923.53
2022-07-29T15:15:13.979Z,99930.00
2022-07-29T15:18:16.574Z,99926.25
2022-07-29T15:21:28.426Z,99921.12
2022-07-29T15:24:31.525Z,99920.56
2022-07-29T15:27:33.730Z,99907.94
2022-07-29T15:30:41.507Z,99909.78
2022-07-29T15:33:45.864Z,99890.16
2022-07-29T15:36:52.437Z,99906.31
2022-07-29T15:39:59.905Z,99897.09
2022-07-29T15:43:06.600Z,99906.72
2022-07-29T15:46:27.729Z,99895.97
2022-07-29T15:49:47.886Z,99883.12
2022-07-29T15:52:51.863Z,99884.72
2022-07-29T15:55:54.365Z,99900.41
2022-07-29T15:58:56.993Z,99895.22
2022-07-29T16:02:00.683Z,99884.78
2022-07-29T16:05:03.461Z,99872.13
2022-07-29T16:08:06.027Z,99864.69
2022-07-29T16:11:08.402Z,99878.19
2022-07-29T16:14:13.691Z,99891.44
2022-07-29T16:17:16.764Z,99884.59
2022-07-29T16:20:20.728Z,99891.22
2022-07-29T16:23:24.836Z,99883.28
2022-07-29T16:26:27.549Z,99884.09
2022-07-29T16:29:30.102Z,99893.03
2022-07-29T16:32:32.476Z,99889.00
2022-07-29T16:35:39.473Z,99874.28
2022-07-29T16:38:47.031Z,99882.56
2022-07-29T16:41:50.058Z,99868.81
2022-07-29T16:44:52.308Z,99878.53
2022-07-29T16:48:00.022Z,99871.97
2022-07-29T16:51:02.748Z,99858.03
2022-07-29T16:54:05.458Z,99875.50
2022-07-29T16:57:07.858Z,99876.69
2022-07-29T17:00:11.143Z,99859.38
2022-07-29T17:03:13.445Z,99873.75
2022-07-29T17:06:16.153Z,99857.41
2022-07-29T17:09:18.551Z,99853.69
2022-07-29T17:12:21.109Z,99859.50
2022-07-29T17:15:23.424Z,99845.16
2022-07-29T17:18:25.993Z,99869.31
2022-07-29T17:21:28.529Z,99875.69
2022-07-29T17:24:31.045Z,99870.41
2022-07-29T17:27:33.754Z,99863.06
2022-07-29T17:30:36.272Z,99863.28
2022-07-29T17:33:38.446Z,99879.37
2022-07-29T17:36:41.004Z,99872.47
2022-07-29T17:39:43.373Z,99869.50
2022-07-29T17:42:45.983Z,99883.62
2022-07-29T17:45:49.936Z,99863.63
2022-07-29T17:48:57.238Z,99868.19
2022-07-29T17:52:01.053Z,99872.22
2022-07-29T17:55:04.011Z,99862.00
2022-07-29T17:58:08.998Z,99874.34
2022-07-29T18:01:11.865Z,99873.75
2022-07-29T18:04:15.549Z,99874.06
2022-07-29T18:07:18.535Z,99873.47
2022-07-29T18:10:21.761Z,99869.09
2022-07-29T18:13:23.984Z,99878.13
2022-07-29T18:16:26.518Z,99877.53
2022-07-29T18:19:29.747Z,99890.06
2022-07-29T18:22:32.262Z,99879.37
2022-07-29T18:25:35.188Z,99895.19
2022-07-29T18:28:37.822Z,99892.69
2022-07-29T18:31:42.303Z,99874.41
2022-07-29T18:34:45.059Z,99896.81
2022-07-29T18:38:01.039Z,99897.62
2022-07-29T18:41:05.274Z,99901.13
2022-07-29T18:44:09.595Z,99884.91
2022-07-29T18:47:12.647Z,99890.16
2022-07-29T18:50:16.502Z,99894.44
2022-07-29T18:53:19.120Z,99921.88
2022-07-29T18:56:21.343Z,99906.41
2022-07-29T18:59:24.172Z,99939.84
2022-07-29T19:02:27.881Z,99928.03
2022-07-29T19:05:32.514Z,99938.94
2022-07-29T19:08:34.813Z,99952.81
2022-07-29T19:11:38.430Z,99963.53
2022-07-29T19:14:40.729Z,99957.69
2022-07-29T19:17:46.180Z,99948.37
2022-07-29T19:20:48.544Z,99943.16
2022-07-29T19:24:05.166Z,99973.72
2022-07-29T19:27:09.758Z,99975.75
2022-07-29T19:30:12.780Z,99953.66
2022-07-29T19:33:17.565Z,99956.94
2022-07-29T19:36:20.601Z,99955.19
2022-07-29T19:39:35.019Z,99972.53
2022-07-29T19:42:38.091Z,99962.06
2022-07-29T19:45:42.701Z,99961.69
2022-07-29T19:48:46.128Z,99939.56
2022-07-29T19:51:48.390Z,99930.38
2022-07-29T19:54:51.030Z,99960.59
2022-07-29T19:57:53.762Z,99954.87
2022-07-29T20:00:56.866Z,99949.03
2022-07-29T20:03:59.455Z,99946.09
2022-07-29T20:07:02.195Z,99938.31
2022-07-29T20:10:06.347Z,99954.38
2022-07-29T20:13:08.639Z,99948.97
2022-07-29T20:16:11.220Z,99955.66
2022-07-29T20:19:13.672Z,99947.03
2022-07-29T20:22:21.270Z,99943.66
2022-07-29T20:25:24.012Z,99940.28
2022-07-29T20:28:26.568Z,99954.87
2022-07-29T20:31:37.843Z,99949.72
2022-07-29T20:34:43.883Z,99960.38
2022-07-29T20:37:55.838Z,99987.75
2022-07-29T20:40:59.064Z,99971.00
2022-07-29T20:44:04.696Z,99977.56
2022-07-29T20:47:07.300Z,99975.44
2022-07-29T20:50:10.183Z,99985.97
2022-07-29T20:53:12.934Z,99971.75
2022-07-29T20:56:15.436Z,99982.38
2022-07-29T20:59:19.650Z,99976.81
2022-07-29T21:02:21.962Z,100003.59
2022-07-29T21:05:24.744Z,99997.28
2022-07-29T21:08:27.418Z,100000.69
2022-07-29T21:11:43.445Z,99997.16
2022-07-29T21:14:49.671Z,99997.03
2022-07-29T21:17:59.924Z,99990.25
2022-07-29T21:21:03.856Z,99988.66
2022-07-29T21:24:08.114Z,99986.97
2022-07-29T21:27:32.990Z,100000.19
2022-07-29T21:30:36.636Z,100004.25
2022-07-29T21:33:41.383Z,99984.31
2022-07-29T21:36:48.073Z,99984.06
2022-07-29T21:39:51.138Z,100009.72
2022-07-29T21:42:53.724Z,100013.91
2022-07-29T21:45:57.198Z,100012.75
2022-07-29T21:48:59.837Z,99993.50
2022-07-29T21:52:02.174Z,100028.75
2022-07-29T21:55:05.095Z,100023.31
2022-07-29T21:58:07.558Z,100012.84
2022-07-29T22:01:10.152Z,100038.25
2022-07-29T22:04:12.880Z,100024.09
2022-07-29T22:07:15.256Z,100052.09
2022-07-29T22:10:17.965Z,100049.16
2022-07-29T22:13:20.211Z,100054.59
2022-07-29T22:16:22.803Z,100049.50
2022-07-29T22:19:27.344Z,100031.34
2022-07-29T22:22:30.300Z,100057.69
2022-07-29T22:25:32.648Z,100047.56
2022-07-29T22:28:35.333Z,100036.28
2022-07-29T22:31:37.588Z,100054.28
2022-07-29T22:34:40.099Z,100043.34
2022-07-29T22:37:42.325Z,100049.66
2022-07-29T22:40:44.955Z,100038.72
2022-07-29T22:43:47.540Z,100035.53
2022-07-29T22:46:50.168Z,100049.12
2022-07-29T22:49:52.500Z,100045.31
2022-07-29T22:52:55.207Z,100054.91
2022-07-29T22:55:57.573Z,100045.84
2022-07-29T22:59:00.194Z,100033.37
2022-07-29T23:02:02.433Z,100022.63
2022-07-29T23:05:05.238Z,100044.16
2022-07-29T23:08:08.920Z,100044.16
2022-07-29T23:11:11.443Z,100037.78
2022-07-29T23:14:13.710Z,100010.81
2022-07-29T23:17:16.335Z,100031.53
2022-07-29T23:20:19.179Z,100025.97
2022-07-29T23:23:21.696Z,100026.69
2022-07-29T23:26:23.919Z,100009.25
2022-07-29T23:29:26.783Z,100013.34
2022-07-29T23:32:29.036Z,100000.94
2022-07-29T23:35:31.591Z,99991.28
2022-07-29T23:38:33.821Z,99989.34
2022-07-29T23:41:36.464Z,99994.97
2022-07-29T23:44:39.378Z,100004.56
2022-07-29T23:47:42.476Z,100001.28
2022-07-29T23:50:45.116Z,99973.47
2022-07-29T23:53:53.068Z,99975.50
2022-07-29T23:56:57.912Z,99977.50
